Weather History for KASW - November, 2011

Change the Weather History Date:

Monday, November 21, 2011

  Actual Average Record
Temperature  
Mean Temperature 37 °F -  
Max Temperature 39 °F 43 °F 68 °F (1990)
Min Temperature 35 °F 29 °F 9 °F (1964)
Degree Days  
Heating Degree Days 28    
Moisture  
Dew Point 34 °F    
Average Humidity 89    
Maximum Humidity 93    
Minimum Humidity 81    
Precipitation  
Precipitation 0.11 in - - ()
Sea Level Pressure  
Sea Level Pressure 30.27 in    
Wind  
Wind Speed 7 mph (East)    
Max Wind Speed 13 mph    
Max Gust Speed 16 mph    
Visibility 10 miles    
Events Rain    
Averages and records for this station are not official NWS values.
T = Trace of Precipitation, MM = Missing Value Source: NWS Daily Summary

Daily Weather History Graph

Daily Weather History Graph

Search for Another Location

Airport or City:

Trip Planner

Search our weather history database for the weather conditions in past years. The results will help you decide how hot, cold, wet, or windy it might be!

Date:

Astronomy

Nov. 21, 2011 Rise Set
Actual Time 7:38 AM EST 5:19 PM EST
Civil Twilight 7:08 AM EST 5:49 PM EST
Nautical Twilight 6:34 AM EST 6:23 PM EST
Astronomical Twilight 6:01 AM EST 6:56 PM EST
Moon 3:13 AM EST (11/21) 2:43 PM EST (11/21)
Length of Visible Light 10h 41m
Length of Day
9h 41m
Waning Crescent, 18% of the Moon is Illuminated
Nov 21
Waning Crescent
Nov 25
New
Dec 2
First Quarter
Dec 10
Full
Dec 17
Last Quarter

Hourly Weather History & Observations

Time (EST) Temp. Windchill Dew Point Humidity Pressure Visibility Wind Dir Wind Speed Gust Speed Precip Events Conditions
12:15 AM 35.6 °F 31.7 °F 32.0 °F 87% 30.29 in 10.0 mi NNE 4.6 mph - N/A   Overcast
12:35 AM 35.6 °F 32.8 °F 32.0 °F 87% 30.29 in 10.0 mi NE 3.5 mph - N/A   Light Drizzle
12:55 AM 35.6 °F 30.7 °F 32.0 °F 87% 30.28 in 10.0 mi ENE 5.8 mph - N/A Rain Light Rain
1:15 AM 35.6 °F 32.8 °F 32.0 °F 87% 30.29 in 10.0 mi NE 3.5 mph - N/A   Overcast
1:35 AM 35.6 °F 29.9 °F 32.0 °F 87% 30.26 in 10.0 mi East 6.9 mph - N/A   Overcast
1:55 AM 35.6 °F 29.9 °F 32.0 °F 87% 30.26 in 10.0 mi ENE 6.9 mph - N/A   Overcast
2:15 AM 35.6 °F 30.7 °F 32.0 °F 87% 30.27 in 10.0 mi ENE 5.8 mph - N/A   Overcast
2:35 AM 35.6 °F 29.9 °F 32.0 °F 87% 30.27 in 10.0 mi ENE 6.9 mph - N/A   Overcast
2:55 AM 35.6 °F 29.9 °F 32.0 °F 87% 30.27 in 10.0 mi ENE 6.9 mph - N/A Rain Light Rain
3:15 AM 35.6 °F 30.7 °F 32.0 °F 87% 30.27 in 7.0 mi NE 5.8 mph - 0.01 in Rain Light Rain
3:35 AM 35.6 °F 31.7 °F 33.8 °F 93% 30.28 in 10.0 mi NE 4.6 mph - 0.03 in Rain Light Rain
4:15 AM 35.6 °F 28.6 °F 33.8 °F 93% 30.26 in 7.0 mi East 9.2 mph - 0.03 in Rain Light Rain
4:35 AM 35.6 °F 30.7 °F 33.8 °F 93% 30.26 in 10.0 mi East 5.8 mph - 0.03 in Rain Light Rain
4:55 AM 35.6 °F 31.7 °F 33.8 °F 93% 30.27 in 7.0 mi East 4.6 mph - 0.04 in Rain Light Rain
5:15 AM 35.6 °F 29.9 °F 33.8 °F 93% 30.27 in 7.0 mi East 6.9 mph - 0.01 in Rain Rain
5:35 AM 35.6 °F 29.2 °F 33.8 °F 93% 30.27 in 7.0 mi East 8.1 mph - 0.03 in Rain Light Rain
5:55 AM 35.6 °F 29.9 °F 33.8 °F 93% 30.29 in 7.0 mi East 6.9 mph - 0.03 in Rain Light Rain
6:15 AM 35.6 °F 29.9 °F 33.8 °F 93% 30.30 in 7.0 mi East 6.9 mph - 0.01 in Rain Light Rain
6:35 AM 35.6 °F 29.2 °F 33.8 °F 93% 30.30 in 7.0 mi ENE 8.1 mph - 0.01 in Rain Light Rain
6:55 AM 35.6 °F 29.2 °F 33.8 °F 93% 30.30 in 7.0 mi ENE 8.1 mph - 0.01 in   Overcast
7:15 AM 35.6 °F 29.9 °F 33.8 °F 93% 30.30 in 10.0 mi ENE 6.9 mph - N/A   Overcast
7:35 AM 35.6 °F 28.6 °F 33.8 °F 93% 30.30 in 10.0 mi ENE 9.2 mph - N/A   Overcast
7:55 AM 35.6 °F 28.0 °F 33.8 °F 93% 30.30 in 7.0 mi East 10.4 mph - N/A   Overcast
8:15 AM 35.6 °F 27.5 °F 33.8 °F 93% 30.31 in 7.0 mi East 11.5 mph - N/A   Overcast
8:35 AM 35.6 °F 28.6 °F 33.8 °F 93% 30.32 in 10.0 mi East 9.2 mph - N/A   Overcast
8:55 AM 35.6 °F 29.2 °F 33.8 °F 93% 30.32 in 10.0 mi East 8.1 mph - N/A   Overcast
9:15 AM 35.6 °F 28.0 °F 33.8 °F 93% 30.31 in 10.0 mi East 10.4 mph - N/A   Overcast
9:35 AM 35.6 °F 28.6 °F 33.8 °F 93% 30.30 in 10.0 mi East 9.2 mph - N/A   Overcast
9:55 AM 35.6 °F 27.1 °F 33.8 °F 93% 30.30 in 10.0 mi East 12.7 mph 16.1 mph N/A   Overcast
10:15 AM 35.6 °F 28.6 °F 33.8 °F 93% 30.30 in 10.0 mi East 9.2 mph 16.1 mph N/A   Overcast
10:35 AM 37.4 °F 29.8 °F 33.8 °F 87% 30.30 in 10.0 mi East 11.5 mph - N/A   Overcast
10:55 AM 37.4 °F 30.8 °F 33.8 °F 87% 30.32 in 10.0 mi ESE 9.2 mph - N/A   Overcast
11:15 AM 37.4 °F 30.3 °F 33.8 °F 87% 30.32 in 10.0 mi East 10.4 mph - N/A   Overcast
11:35 AM 37.4 °F 31.4 °F 33.8 °F 87% 30.31 in 10.0 mi East 8.1 mph - N/A   Overcast
11:55 AM 37.4 °F 30.3 °F 33.8 °F 87% 30.30 in 10.0 mi East 10.4 mph - N/A   Overcast
12:15 PM 37.4 °F 30.8 °F 35.6 °F 93% 30.28 in 10.0 mi East 9.2 mph - N/A   Overcast
12:35 PM 37.4 °F 29.8 °F 35.6 °F 93% 30.27 in 10.0 mi East 11.5 mph - N/A   Overcast
12:55 PM 37.4 °F 29.8 °F 33.8 °F 87% 30.26 in 10.0 mi ENE 11.5 mph - N/A   Overcast
1:15 PM 39.2 °F 32.5 °F 35.6 °F 87% 30.26 in 10.0 mi East 10.4 mph - N/A   Overcast
1:35 PM 39.2 °F 33.6 °F 35.6 °F 87% 30.26 in 10.0 mi SE 8.1 mph - N/A   Overcast
1:55 PM 39.2 °F 33.0 °F 33.8 °F 81% 30.25 in 10.0 mi East 9.2 mph - N/A   Overcast
2:15 PM 39.2 °F 31.6 °F 35.6 °F 87% 30.25 in 10.0 mi East 12.7 mph - N/A   Overcast
2:35 PM 39.2 °F 34.2 °F 35.6 °F 87% 30.25 in 10.0 mi East 6.9 mph - N/A   Overcast
2:55 PM 39.2 °F 35.0 °F 33.8 °F 81% 30.25 in 10.0 mi East 5.8 mph - N/A   Overcast
3:15 PM 39.2 °F 33.6 °F 33.8 °F 81% 30.24 in 10.0 mi East 8.1 mph - N/A   Overcast
3:35 PM 39.2 °F 33.0 °F 35.6 °F 87% 30.24 in 10.0 mi East 9.2 mph - N/A   Overcast
3:55 PM 39.2 °F 33.0 °F 33.8 °F 81% 30.24 in 10.0 mi ENE 9.2 mph - N/A   Overcast
4:15 PM 37.4 °F 31.4 °F 33.8 °F 87% 30.24 in 10.0 mi East 8.1 mph - N/A   Overcast
4:35 PM 37.4 °F 29.8 °F 33.8 °F 87% 30.24 in 10.0 mi ENE 11.5 mph - N/A   Overcast
4:55 PM 37.4 °F 31.4 °F 33.8 °F 87% 30.24 in 10.0 mi East 8.1 mph - N/A   Overcast
5:15 PM 37.4 °F 30.3 °F 33.8 °F 87% 30.24 in 10.0 mi East 10.4 mph - N/A   Overcast
5:55 PM 37.4 °F 30.3 °F 33.8 °F 87% 30.25 in 10.0 mi East 10.4 mph - N/A   Overcast
6:15 PM 37.4 °F 30.3 °F 33.8 °F 87% 30.24 in 10.0 mi East 10.4 mph - N/A   Overcast
6:35 PM 37.4 °F 32.1 °F 33.8 °F 87% 30.24 in 10.0 mi East 6.9 mph - N/A   Overcast
6:55 PM 37.4 °F 31.4 °F 33.8 °F 87% 30.24 in 10.0 mi East 8.1 mph - N/A   Overcast
7:15 PM 37.4 °F 32.1 °F 33.8 °F 87% 30.24 in 10.0 mi East 6.9 mph - N/A   Overcast
7:35 PM 37.4 °F 30.8 °F 33.8 °F 87% 30.24 in 10.0 mi East 9.2 mph - N/A   Overcast
7:55 PM 37.4 °F 30.8 °F 33.8 °F 87% 30.23 in 10.0 mi East 9.2 mph - N/A   Overcast
8:15 PM 37.4 °F 30.3 °F 33.8 °F 87% 30.23 in 10.0 mi East 10.4 mph - N/A   Overcast
8:35 PM 37.4 °F 29.8 °F 33.8 °F 87% 30.22 in 10.0 mi East 11.5 mph 16.1 mph N/A   Overcast
8:55 PM 37.4 °F 29.8 °F 33.8 °F 87% 30.23 in 10.0 mi East 11.5 mph - N/A   Overcast
9:15 PM 37.4 °F 30.8 °F 33.8 °F 87% 30.23 in 10.0 mi East 9.2 mph - N/A   Overcast
9:35 PM 37.4 °F 30.3 °F 33.8 °F 87% 30.21 in 10.0 mi East 10.4 mph - N/A   Overcast
9:55 PM 37.4 °F 30.3 °F 33.8 °F 87% 30.19 in 10.0 mi East 10.4 mph - N/A   Mostly Cloudy
10:15 PM 35.6 °F 28.6 °F 32.0 °F 87% 30.20 in 10.0 mi East 9.2 mph - N/A   Scattered Clouds
10:35 PM 37.4 °F 31.4 °F 33.8 °F 87% 30.24 in 10.0 mi East 8.1 mph - N/A   Mostly Cloudy
10:55 PM 35.6 °F 28.6 °F 32.0 °F 87% 30.22 in 10.0 mi East 9.2 mph - N/A   Overcast
11:15 PM 35.6 °F 27.5 °F 32.0 °F 87% 30.21 in 10.0 mi East 11.5 mph 17.3 mph N/A   Scattered Clouds
11:35 PM 35.6 °F 28.0 °F 32.0 °F 87% 30.18 in 10.0 mi East 10.4 mph - N/A   Scattered Clouds
11:55 PM 35.6 °F 28.0 °F 32.0 °F 87% 30.20 in 10.0 mi East 10.4 mph - N/A   Clear